Terminal Aerodrome Forecast
Issued by NWS

Home | Current Version | Previous Version | Text Only | Print | Product List | Glossary On
Versions: 1 2 3 4 5 6 7 8 9 10 11 12 13 14 15 16 17 18 19 20
000
FTUS46 KEKA 250542
TAFCEC
TAF
KCEC 250542Z 2506/2606 02005KT P6SM SCT040 SCT120
     FM250900 14005KT P6SM FEW025 OVC050
     FM251700 15010KT P6SM -RA SCT015 OVC025
     FM251900 17012G16KT 4SM RA BR BKN015 OVC025
     FM260200 19014G20KT 5SM -SHRA BKN020 OVC040=

USA.gov is the U.S. government's official web portal to all federal, state and local government web resources and services.